sensor_id;sensor_type;location;lat;lon;timestamp;P1;durP1;ratioP1;P2;durP2;ratioP2
23044;SDS011;11690;51.716;23.066;2023-06-05T00:00:03;1.92;;;0.85;;
23044;SDS011;11690;51.716;23.066;2023-06-05T00:02:38;0.82;;;0.60;;
23044;SDS011;11690;51.716;23.066;2023-06-05T00:05:06;1.35;;;0.80;;
23044;SDS011;11690;51.716;23.066;2023-06-05T00:07:36;0.85;;;0.70;;
23044;SDS011;11690;51.716;23.066;2023-06-05T00:10:06;1.70;;;0.60;;
23044;SDS011;11690;51.716;23.066;2023-06-05T00:12:34;0.75;;;0.70;;
23044;SDS011;11690;51.716;23.066;2023-06-05T00:15:03;0.77;;;0.77;;
23044;SDS011;11690;51.716;23.066;2023-06-05T00:17:31;1.17;;;0.70;;
23044;SDS011;11690;51.716;23.066;2023-06-05T00:19:59;2.17;;;0.95;;
23044;SDS011;11690;51.716;23.066;2023-06-05T00:22:26;1.23;;;0.70;;
23044;SDS011;11690;51.716;23.066;2023-06-05T00:24:55;1.02;;;0.80;;
23044;SDS011;11690;51.716;23.066;2023-06-05T00:27:22;1.50;;;0.90;;
23044;SDS011;11690;51.716;23.066;2023-06-05T00:29:49;1.88;;;0.70;;
23044;SDS011;11690;51.716;23.066;2023-06-05T00:32:16;1.50;;;0.77;;
23044;SDS011;11690;51.716;23.066;2023-06-05T00:34:44;0.85;;;0.68;;
23044;SDS011;11690;51.716;23.066;2023-06-05T00:37:11;0.63;;;0.63;;
23044;SDS011;11690;51.716;23.066;2023-06-05T00:39:40;1.05;;;0.82;;
23044;SDS011;11690;51.716;23.066;2023-06-05T00:42:07;1.13;;;0.70;;
23044;SDS011;11690;51.716;23.066;2023-06-05T00:44:39;0.73;;;0.63;;
23044;SDS011;11690;51.716;23.066;2023-06-05T00:47:07;1.13;;;0.70;;
23044;SDS011;11690;51.716;23.066;2023-06-05T00:49:34;1.00;;;0.70;;
23044;SDS011;11690;51.716;23.066;2023-06-05T00:52:02;1.30;;;0.70;;
23044;SDS011;11690;51.716;23.066;2023-06-05T00:54:29;1.73;;;1.00;;
23044;SDS011;11690;51.716;23.066;2023-06-05T00:56:56;0.95;;;0.80;;
23044;SDS011;11690;51.716;23.066;2023-06-05T00:59:24;0.65;;;0.65;;
23044;SDS011;11690;51.716;23.066;2023-06-05T01:01:51;1.40;;;0.80;;
23044;SDS011;11690;51.716;23.066;2023-06-05T01:04:20;0.77;;;0.77;;
23044;SDS011;11690;51.716;23.066;2023-06-05T01:06:47;0.90;;;0.70;;
23044;SDS011;11690;51.716;23.066;2023-06-05T01:09:15;1.15;;;0.70;;
23044;SDS011;11690;51.716;23.066;2023-06-05T01:12:03;0.52;;;0.52;;
23044;SDS011;11690;51.716;23.066;2023-06-05T01:14:33;1.17;;;0.60;;
23044;SDS011;11690;51.716;23.066;2023-06-05T01:17:01;0.73;;;0.60;;
23044;SDS011;11690;51.716;23.066;2023-06-05T01:19:29;1.00;;;0.80;;
23044;SDS011;11690;51.716;23.066;2023-06-05T01:21:59;0.88;;;0.70;;
23044;SDS011;11690;51.716;23.066;2023-06-05T01:24:27;2.05;;;0.88;;
23044;SDS011;11690;51.716;23.066;2023-06-05T01:29:32;1.20;;;0.70;;
23044;SDS011;11690;51.716;23.066;2023-06-05T01:32:04;1.23;;;0.88;;
23044;SDS011;11690;51.716;23.066;2023-06-05T01:34:43;1.02;;;0.77;;
23044;SDS011;11690;51.716;23.066;2023-06-05T01:37:11;1.98;;;0.98;;
23044;SDS011;11690;51.716;23.066;2023-06-05T01:39:46;2.25;;;0.80;;
23044;SDS011;11690;51.716;23.066;2023-06-05T01:42:14;1.05;;;0.70;;
23044;SDS011;11690;51.716;23.066;2023-06-05T01:44:42;1.73;;;0.82;;
23044;SDS011;11690;51.716;23.066;2023-06-05T01:47:09;0.93;;;0.70;;
23044;SDS011;11690;51.716;23.066;2023-06-05T01:49:37;1.17;;;0.80;;
23044;SDS011;11690;51.716;23.066;2023-06-05T01:52:04;1.30;;;0.90;;
23044;SDS011;11690;51.716;23.066;2023-06-05T01:54:32;0.77;;;0.60;;
23044;SDS011;11690;51.716;23.066;2023-06-05T01:57:00;1.13;;;0.70;;
23044;SDS011;11690;51.716;23.066;2023-06-05T01:59:31;1.70;;;0.80;;
23044;SDS011;11690;51.716;23.066;2023-06-05T02:02:00;0.95;;;0.80;;
23044;SDS011;11690;51.716;23.066;2023-06-05T02:04:29;1.17;;;0.90;;
23044;SDS011;11690;51.716;23.066;2023-06-05T02:06:56;1.98;;;1.00;;
23044;SDS011;11690;51.716;23.066;2023-06-05T02:09:30;1.08;;;0.85;;
23044;SDS011;11690;51.716;23.066;2023-06-05T02:12:00;1.58;;;0.90;;
23044;SDS011;11690;51.716;23.066;2023-06-05T02:14:31;3.53;;;0.70;;
23044;SDS011;11690;51.716;23.066;2023-06-05T02:17:03;4.25;;;0.88;;
23044;SDS011;11690;51.716;23.066;2023-06-05T02:19:33;0.80;;;0.80;;
23044;SDS011;11690;51.716;23.066;2023-06-05T02:22:00;1.10;;;0.75;;
23044;SDS011;11690;51.716;23.066;2023-06-05T02:24:28;1.17;;;0.82;;
23044;SDS011;11690;51.716;23.066;2023-06-05T02:26:55;0.95;;;0.80;;
23044;SDS011;11690;51.716;23.066;2023-06-05T02:29:24;1.42;;;0.70;;
23044;SDS011;11690;51.716;23.066;2023-06-05T02:31:51;1.08;;;0.88;;
23044;SDS011;11690;51.716;23.066;2023-06-05T02:34:18;0.95;;;0.80;;
23044;SDS011;11690;51.716;23.066;2023-06-05T02:36:46;1.95;;;1.13;;
23044;SDS011;11690;51.716;23.066;2023-06-05T02:39:14;2.28;;;1.00;;
23044;SDS011;11690;51.716;23.066;2023-06-05T02:41:41;1.45;;;0.82;;
23044;SDS011;11690;51.716;23.066;2023-06-05T02:44:11;1.23;;;0.90;;
23044;SDS011;11690;51.716;23.066;2023-06-05T02:46:38;5.90;;;0.70;;
23044;SDS011;11690;51.716;23.066;2023-06-05T02:49:06;1.00;;;0.85;;
23044;SDS011;11690;51.716;23.066;2023-06-05T02:51:33;1.10;;;0.80;;
23044;SDS011;11690;51.716;23.066;2023-06-05T02:54:00;1.60;;;0.70;;
23044;SDS011;11690;51.716;23.066;2023-06-05T02:56:27;1.33;;;0.77;;
23044;SDS011;11690;51.716;23.066;2023-06-05T02:58:55;1.17;;;0.80;;
23044;SDS011;11690;51.716;23.066;2023-06-05T03:01:24;1.38;;;1.05;;
23044;SDS011;11690;51.716;23.066;2023-06-05T03:03:52;1.60;;;1.10;;
23044;SDS011;11690;51.716;23.066;2023-06-05T03:06:21;1.05;;;0.85;;
23044;SDS011;11690;51.716;23.066;2023-06-05T03:08:55;1.98;;;1.02;;
23044;SDS011;11690;51.716;23.066;2023-06-05T03:11:23;3.47;;;1.10;;
23044;SDS011;11690;51.716;23.066;2023-06-05T03:13:53;1.00;;;0.90;;
23044;SDS011;11690;51.716;23.066;2023-06-05T03:16:21;1.75;;;1.00;;
23044;SDS011;11690;51.716;23.066;2023-06-05T03:18:53;2.00;;;0.80;;
23044;SDS011;11690;51.716;23.066;2023-06-05T03:21:22;0.68;;;0.60;;
23044;SDS011;11690;51.716;23.066;2023-06-05T03:23:50;0.88;;;0.80;;
23044;SDS011;11690;51.716;23.066;2023-06-05T03:26:17;2.08;;;0.70;;
23044;SDS011;11690;51.716;23.066;2023-06-05T03:28:45;1.35;;;1.00;;
23044;SDS011;11690;51.716;23.066;2023-06-05T03:31:15;1.33;;;1.10;;
23044;SDS011;11690;51.716;23.066;2023-06-05T03:33:45;3.00;;;1.15;;
23044;SDS011;11690;51.716;23.066;2023-06-05T03:36:13;2.42;;;1.00;;
23044;SDS011;11690;51.716;23.066;2023-06-05T03:38:46;1.50;;;1.02;;
23044;SDS011;11690;51.716;23.066;2023-06-05T03:41:13;0.80;;;0.80;;
23044;SDS011;11690;51.716;23.066;2023-06-05T03:43:41;1.02;;;0.90;;
23044;SDS011;11690;51.716;23.066;2023-06-05T03:46:08;1.85;;;1.00;;
23044;SDS011;11690;51.716;23.066;2023-06-05T03:48:38;1.45;;;1.08;;
23044;SDS011;11690;51.716;23.066;2023-06-05T03:51:05;1.30;;;1.08;;
23044;SDS011;11690;51.716;23.066;2023-06-05T03:53:33;1.60;;;1.05;;
23044;SDS011;11690;51.716;23.066;2023-06-05T03:56:01;1.90;;;1.25;;
23044;SDS011;11690;51.716;23.066;2023-06-05T03:58:35;2.90;;;1.23;;
23044;SDS011;11690;51.716;23.066;2023-06-05T04:01:03;1.38;;;0.90;;
23044;SDS011;11690;51.716;23.066;2023-06-05T04:03:31;2.72;;;0.85;;
23044;SDS011;11690;51.716;23.066;2023-06-05T04:05:58;3.22;;;1.10;;
23044;SDS011;11690;51.716;23.066;2023-06-05T04:08:26;1.33;;;1.17;;
23044;SDS011;11690;51.716;23.066;2023-06-05T04:10:53;2.15;;;1.33;;
23044;SDS011;11690;51.716;23.066;2023-06-05T04:13:20;1.40;;;1.05;;
23044;SDS011;11690;51.716;23.066;2023-06-05T04:15:49;3.28;;;1.10;;
23044;SDS011;11690;51.716;23.066;2023-06-05T04:18:16;1.38;;;1.20;;
23044;SDS011;11690;51.716;23.066;2023-06-05T04:20:46;1.35;;;1.10;;
23044;SDS011;11690;51.716;23.066;2023-06-05T04:23:14;5.90;;;1.30;;
23044;SDS011;11690;51.716;23.066;2023-06-05T04:25:43;1.83;;;1.00;;
23044;SDS011;11690;51.716;23.066;2023-06-05T04:28:12;3.55;;;1.10;;
23044;SDS011;11690;51.716;23.066;2023-06-05T04:30:39;1.58;;;1.10;;
23044;SDS011;11690;51.716;23.066;2023-06-05T04:33:07;1.40;;;0.93;;
23044;SDS011;11690;51.716;23.066;2023-06-05T04:35:37;3.05;;;1.63;;
23044;SDS011;11690;51.716;23.066;2023-06-05T04:38:04;2.35;;;1.30;;
23044;SDS011;11690;51.716;23.066;2023-06-05T04:40:32;3.20;;;0.95;;
23044;SDS011;11690;51.716;23.066;2023-06-05T04:43:00;2.05;;;1.42;;
23044;SDS011;11690;51.716;23.066;2023-06-05T04:45:28;2.33;;;1.50;;
23044;SDS011;11690;51.716;23.066;2023-06-05T04:47:56;2.55;;;1.15;;
23044;SDS011;11690;51.716;23.066;2023-06-05T04:50:24;3.65;;;1.30;;
23044;SDS011;11690;51.716;23.066;2023-06-05T04:53:04;6.13;;;1.70;;
23044;SDS011;11690;51.716;23.066;2023-06-05T04:55:33;3.38;;;1.30;;
23044;SDS011;11690;51.716;23.066;2023-06-05T04:58:05;3.17;;;1.33;;
23044;SDS011;11690;51.716;23.066;2023-06-05T05:00:33;2.72;;;1.20;;
23044;SDS011;11690;51.716;23.066;2023-06-05T05:03:03;2.15;;;0.90;;
23044;SDS011;11690;51.716;23.066;2023-06-05T05:05:31;2.40;;;1.10;;
23044;SDS011;11690;51.716;23.066;2023-06-05T05:07:59;1.90;;;1.00;;
23044;SDS011;11690;51.716;23.066;2023-06-05T05:10:27;1.23;;;1.00;;
23044;SDS011;11690;51.716;23.066;2023-06-05T05:12:54;1.83;;;1.25;;
23044;SDS011;11690;51.716;23.066;2023-06-05T05:15:22;2.40;;;1.20;;
23044;SDS011;11690;51.716;23.066;2023-06-05T05:17:49;2.35;;;1.27;;
23044;SDS011;11690;51.716;23.066;2023-06-05T05:20:19;3.72;;;1.15;;
23044;SDS011;11690;51.716;23.066;2023-06-05T05:22:47;1.92;;;1.13;;
23044;SDS011;11690;51.716;23.066;2023-06-05T05:25:14;2.22;;;1.17;;
23044;SDS011;11690;51.716;23.066;2023-06-05T05:27:42;1.83;;;1.05;;
23044;SDS011;11690;51.716;23.066;2023-06-05T05:30:09;2.80;;;1.02;;
23044;SDS011;11690;51.716;23.066;2023-06-05T05:32:37;1.88;;;0.90;;
23044;SDS011;11690;51.716;23.066;2023-06-05T05:35:05;2.00;;;1.15;;
23044;SDS011;11690;51.716;23.066;2023-06-05T05:37:33;1.48;;;0.90;;
23044;SDS011;11690;51.716;23.066;2023-06-05T05:40:01;1.58;;;0.82;;
23044;SDS011;11690;51.716;23.066;2023-06-05T05:42:30;1.92;;;0.57;;
23044;SDS011;11690;51.716;23.066;2023-06-05T05:44:57;0.85;;;0.60;;
23044;SDS011;11690;51.716;23.066;2023-06-05T05:47:24;1.17;;;0.73;;
23044;SDS011;11690;51.716;23.066;2023-06-05T05:49:51;1.45;;;0.80;;
23044;SDS011;11690;51.716;23.066;2023-06-05T05:52:18;0.65;;;0.63;;
23044;SDS011;11690;51.716;23.066;2023-06-05T05:54:47;0.85;;;0.70;;
23044;SDS011;11690;51.716;23.066;2023-06-05T05:57:15;2.35;;;0.77;;
23044;SDS011;11690;51.716;23.066;2023-06-05T05:59:42;0.93;;;0.60;;
23044;SDS011;11690;51.716;23.066;2023-06-05T06:02:11;0.95;;;0.82;;
23044;SDS011;11690;51.716;23.066;2023-06-05T06:04:39;0.93;;;0.73;;
23044;SDS011;11690;51.716;23.066;2023-06-05T06:07:07;2.30;;;0.77;;
23044;SDS011;11690;51.716;23.066;2023-06-05T06:09:35;2.28;;;0.80;;
23044;SDS011;11690;51.716;23.066;2023-06-05T06:12:02;1.48;;;0.60;;
23044;SDS011;11690;51.716;23.066;2023-06-05T06:14:33;0.95;;;0.50;;
23044;SDS011;11690;51.716;23.066;2023-06-05T06:17:01;1.52;;;0.80;;
23044;SDS011;11690;51.716;23.066;2023-06-05T06:19:29;1.08;;;0.60;;
23044;SDS011;11690;51.716;23.066;2023-06-05T06:21:59;0.90;;;0.50;;
23044;SDS011;11690;51.716;23.066;2023-06-05T06:24:27;0.98;;;0.40;;
23044;SDS011;11690;51.716;23.066;2023-06-05T06:26:54;0.90;;;0.50;;
23044;SDS011;11690;51.716;23.066;2023-06-05T06:29:23;1.00;;;0.50;;
23044;SDS011;11690;51.716;23.066;2023-06-05T06:31:52;1.10;;;0.50;;
23044;SDS011;11690;51.716;23.066;2023-06-05T06:34:19;0.85;;;0.57;;
23044;SDS011;11690;51.716;23.066;2023-06-05T06:36:46;0.85;;;0.50;;
23044;SDS011;11690;51.716;23.066;2023-06-05T06:39:14;0.40;;;0.40;;
23044;SDS011;11690;51.716;23.066;2023-06-05T06:41:41;1.17;;;0.60;;
23044;SDS011;11690;51.716;23.066;2023-06-05T06:44:08;1.95;;;0.60;;
23044;SDS011;11690;51.716;23.066;2023-06-05T06:46:35;1.08;;;0.35;;
23044;SDS011;11690;51.716;23.066;2023-06-05T06:49:04;1.98;;;0.43;;
23044;SDS011;11690;51.716;23.066;2023-06-05T06:51:31;0.50;;;0.40;;
23044;SDS011;11690;51.716;23.066;2023-06-05T06:53:59;1.02;;;0.30;;
23044;SDS011;11690;51.716;23.066;2023-06-05T06:56:26;0.70;;;0.40;;
23044;SDS011;11690;51.716;23.066;2023-06-05T06:58:55;0.68;;;0.30;;
23044;SDS011;11690;51.716;23.066;2023-06-05T07:01:22;0.75;;;0.40;;
23044;SDS011;11690;51.716;23.066;2023-06-05T07:03:51;1.15;;;0.55;;
23044;SDS011;11690;51.716;23.066;2023-06-05T07:06:18;0.43;;;0.30;;
23044;SDS011;11690;51.716;23.066;2023-06-05T07:08:48;1.23;;;0.32;;
23044;SDS011;11690;51.716;23.066;2023-06-05T07:11:15;3.90;;;0.50;;
23044;SDS011;11690;51.716;23.066;2023-06-05T07:13:43;0.75;;;0.40;;
23044;SDS011;11690;51.716;23.066;2023-06-05T07:16:10;1.17;;;0.50;;
23044;SDS011;11690;51.716;23.066;2023-06-05T07:18:37;0.85;;;0.43;;
23044;SDS011;11690;51.716;23.066;2023-06-05T07:21:04;0.63;;;0.40;;
23044;SDS011;11690;51.716;23.066;2023-06-05T07:23:32;0.82;;;0.38;;
23044;SDS011;11690;51.716;23.066;2023-06-05T07:26:00;0.60;;;0.60;;
23044;SDS011;11690;51.716;23.066;2023-06-05T07:28:27;1.05;;;0.47;;
23044;SDS011;11690;51.716;23.066;2023-06-05T07:30:54;1.38;;;0.50;;
23044;SDS011;11690;51.716;23.066;2023-06-05T07:33:22;5.35;;;0.50;;
23044;SDS011;11690;51.716;23.066;2023-06-05T07:35:58;1.20;;;0.63;;
23044;SDS011;11690;51.716;23.066;2023-06-05T07:38:27;1.60;;;0.50;;
23044;SDS011;11690;51.716;23.066;2023-06-05T07:40:56;0.68;;;0.40;;
23044;SDS011;11690;51.716;23.066;2023-06-05T07:43:28;1.58;;;0.30;;
23044;SDS011;11690;51.716;23.066;2023-06-05T07:45:55;1.38;;;0.50;;
23044;SDS011;11690;51.716;23.066;2023-06-05T07:48:23;0.75;;;0.57;;
23044;SDS011;11690;51.716;23.066;2023-06-05T07:50:51;0.90;;;0.43;;
23044;SDS011;11690;51.716;23.066;2023-06-05T07:53:18;1.13;;;0.47;;
23044;SDS011;11690;51.716;23.066;2023-06-05T07:55:45;3.42;;;0.82;;
23044;SDS011;11690;51.716;23.066;2023-06-05T07:58:12;1.00;;;0.50;;
23044;SDS011;11690;51.716;23.066;2023-06-05T08:00:40;0.40;;;0.40;;
23044;SDS011;11690;51.716;23.066;2023-06-05T08:03:14;0.60;;;0.50;;
23044;SDS011;11690;51.716;23.066;2023-06-05T08:05:47;0.45;;;0.40;;
23044;SDS011;11690;51.716;23.066;2023-06-05T08:08:15;1.38;;;0.55;;
23044;SDS011;11690;51.716;23.066;2023-06-05T08:10:43;2.22;;;0.70;;
23044;SDS011;11690;51.716;23.066;2023-06-05T08:13:11;1.25;;;0.60;;
23044;SDS011;11690;51.716;23.066;2023-06-05T08:15:38;1.38;;;0.50;;
23044;SDS011;11690;51.716;23.066;2023-06-05T08:18:05;1.20;;;0.47;;
23044;SDS011;11690;51.716;23.066;2023-06-05T08:20:32;0.77;;;0.68;;
23044;SDS011;11690;51.716;23.066;2023-06-05T08:22:59;0.60;;;0.40;;
23044;SDS011;11690;51.716;23.066;2023-06-05T08:25:27;1.30;;;0.47;;
23044;SDS011;11690;51.716;23.066;2023-06-05T08:27:54;3.58;;;0.60;;
23044;SDS011;11690;51.716;23.066;2023-06-05T08:30:21;0.55;;;0.40;;
23044;SDS011;11690;51.716;23.066;2023-06-05T08:32:48;0.60;;;0.40;;
23044;SDS011;11690;51.716;23.066;2023-06-05T08:35:15;2.85;;;0.50;;
23044;SDS011;11690;51.716;23.066;2023-06-05T08:37:43;0.40;;;0.40;;
23044;SDS011;11690;51.716;23.066;2023-06-05T08:40:10;3.70;;;0.52;;
23044;SDS011;11690;51.716;23.066;2023-06-05T08:42:39;0.60;;;0.40;;
23044;SDS011;11690;51.716;23.066;2023-06-05T08:45:07;0.50;;;0.40;;
23044;SDS011;11690;51.716;23.066;2023-06-05T08:47:35;0.93;;;0.47;;
23044;SDS011;11690;51.716;23.066;2023-06-05T08:50:04;0.77;;;0.40;;
23044;SDS011;11690;51.716;23.066;2023-06-05T08:52:32;1.58;;;0.50;;
23044;SDS011;11690;51.716;23.066;2023-06-05T08:55:05;1.73;;;0.65;;
23044;SDS011;11690;51.716;23.066;2023-06-05T08:57:37;6.93;;;0.80;;
23044;SDS011;11690;51.716;23.066;2023-06-05T09:00:05;0.50;;;0.30;;
23044;SDS011;11690;51.716;23.066;2023-06-05T09:02:37;0.65;;;0.60;;
23044;SDS011;11690;51.716;23.066;2023-06-05T09:05:05;1.05;;;0.65;;
23044;SDS011;11690;51.716;23.066;2023-06-05T09:07:33;1.13;;;0.50;;
23044;SDS011;11690;51.716;23.066;2023-06-05T09:10:00;0.88;;;0.57;;
23044;SDS011;11690;51.716;23.066;2023-06-05T09:12:28;1.40;;;0.57;;
23044;SDS011;11690;51.716;23.066;2023-06-05T09:14:55;12.48;;;0.70;;
23044;SDS011;11690;51.716;23.066;2023-06-05T09:17:24;0.50;;;0.45;;
23044;SDS011;11690;51.716;23.066;2023-06-05T09:19:51;0.60;;;0.52;;
23044;SDS011;11690;51.716;23.066;2023-06-05T09:22:31;1.25;;;0.73;;
23044;SDS011;11690;51.716;23.066;2023-06-05T09:25:00;0.73;;;0.47;;
23044;SDS011;11690;51.716;23.066;2023-06-05T09:27:28;2.58;;;0.80;;
23044;SDS011;11690;51.716;23.066;2023-06-05T09:30:01;0.68;;;0.38;;
23044;SDS011;11690;51.716;23.066;2023-06-05T09:32:31;0.52;;;0.45;;
23044;SDS011;11690;51.716;23.066;2023-06-05T09:34:58;0.50;;;0.50;;
23044;SDS011;11690;51.716;23.066;2023-06-05T09:37:34;0.30;;;0.30;;
23044;SDS011;11690;51.716;23.066;2023-06-05T09:40:02;3.42;;;0.60;;
23044;SDS011;11690;51.716;23.066;2023-06-05T09:42:32;0.98;;;0.50;;
23044;SDS011;11690;51.716;23.066;2023-06-05T09:44:59;1.20;;;0.40;;
23044;SDS011;11690;51.716;23.066;2023-06-05T09:47:28;0.90;;;0.50;;
23044;SDS011;11690;51.716;23.066;2023-06-05T09:50:20;0.50;;;0.40;;
23044;SDS011;11690;51.716;23.066;2023-06-05T09:52:50;1.05;;;0.60;;
23044;SDS011;11690;51.716;23.066;2023-06-05T09:55:18;0.95;;;0.60;;
23044;SDS011;11690;51.716;23.066;2023-06-05T09:57:46;0.47;;;0.40;;
23044;SDS011;11690;51.716;23.066;2023-06-05T10:00:14;0.90;;;0.50;;
23044;SDS011;11690;51.716;23.066;2023-06-05T10:02:45;1.75;;;0.63;;
23044;SDS011;11690;51.716;23.066;2023-06-05T10:05:13;1.27;;;0.50;;
23044;SDS011;11690;51.716;23.066;2023-06-05T10:07:41;0.30;;;0.30;;
23044;SDS011;11690;51.716;23.066;2023-06-05T10:10:08;0.90;;;0.60;;
23044;SDS011;11690;51.716;23.066;2023-06-05T10:12:36;1.60;;;0.90;;
23044;SDS011;11690;51.716;23.066;2023-06-05T10:15:04;0.55;;;0.45;;
23044;SDS011;11690;51.716;23.066;2023-06-05T10:17:34;1.92;;;0.52;;
23044;SDS011;11690;51.716;23.066;2023-06-05T10:20:05;1.05;;;0.47;;
23044;SDS011;11690;51.716;23.066;2023-06-05T10:22:34;0.85;;;0.60;;
23044;SDS011;11690;51.716;23.066;2023-06-05T10:25:03;0.93;;;0.50;;
23044;SDS011;11690;51.716;23.066;2023-06-05T10:38:20;0.30;;;0.30;;
23044;SDS011;11690;51.716;23.066;2023-06-05T10:40:55;1.08;;;0.70;;
23044;SDS011;11690;51.716;23.066;2023-06-05T10:43:33;0.47;;;0.40;;
23044;SDS011;11690;51.716;23.066;2023-06-05T10:46:27;3.78;;;0.55;;
23044;SDS011;11690;51.716;23.066;2023-06-05T10:51:38;1.02;;;0.60;;
23044;SDS011;11690;51.716;23.066;2023-06-05T10:59:24;0.55;;;0.45;;
23044;SDS011;11690;51.716;23.066;2023-06-05T11:07:19;0.98;;;0.60;;
23044;SDS011;11690;51.716;23.066;2023-06-05T11:15:02;1.02;;;0.63;;
23044;SDS011;11690;51.716;23.066;2023-06-05T11:19:58;2.35;;;0.55;;
23044;SDS011;11690;51.716;23.066;2023-06-05T11:22:26;0.73;;;0.55;;
23044;SDS011;11690;51.716;23.066;2023-06-05T11:28:00;0.77;;;0.50;;
23044;SDS011;11690;51.716;23.066;2023-06-05T11:30:43;0.47;;;0.40;;
23044;SDS011;11690;51.716;23.066;2023-06-05T11:33:16;0.60;;;0.40;;
23044;SDS011;11690;51.716;23.066;2023-06-05T11:35:46;0.77;;;0.50;;
23044;SDS011;11690;51.716;23.066;2023-06-05T11:38:16;0.88;;;0.60;;
23044;SDS011;11690;51.716;23.066;2023-06-05T11:40:48;0.50;;;0.50;;
23044;SDS011;11690;51.716;23.066;2023-06-05T11:43:15;1.13;;;0.75;;
23044;SDS011;11690;51.716;23.066;2023-06-05T11:45:50;1.80;;;0.73;;
23044;SDS011;11690;51.716;23.066;2023-06-05T11:48:18;0.85;;;0.63;;
23044;SDS011;11690;51.716;23.066;2023-06-05T11:50:56;1.98;;;0.68;;
23044;SDS011;11690;51.716;23.066;2023-06-05T11:53:29;0.85;;;0.60;;
23044;SDS011;11690;51.716;23.066;2023-06-05T11:55:58;1.60;;;0.77;;
23044;SDS011;11690;51.716;23.066;2023-06-05T11:58:36;1.77;;;0.70;;
23044;SDS011;11690;51.716;23.066;2023-06-05T12:01:06;1.35;;;0.80;;
23044;SDS011;11690;51.716;23.066;2023-06-05T12:03:41;1.05;;;0.50;;
23044;SDS011;11690;51.716;23.066;2023-06-05T12:06:10;2.08;;;0.47;;
23044;SDS011;11690;51.716;23.066;2023-06-05T12:08:40;0.80;;;0.60;;
23044;SDS011;11690;51.716;23.066;2023-06-05T12:11:22;1.10;;;0.45;;
23044;SDS011;11690;51.716;23.066;2023-06-05T12:13:52;1.15;;;0.65;;
23044;SDS011;11690;51.716;23.066;2023-06-05T12:16:31;0.45;;;0.38;;
23044;SDS011;11690;51.716;23.066;2023-06-05T12:19:02;1.15;;;0.50;;
23044;SDS011;11690;51.716;23.066;2023-06-05T12:21:42;0.65;;;0.60;;
23044;SDS011;11690;51.716;23.066;2023-06-05T12:24:10;1.85;;;0.68;;
23044;SDS011;11690;51.716;23.066;2023-06-05T12:26:52;1.52;;;0.70;;
23044;SDS011;11690;51.716;23.066;2023-06-05T12:29:21;1.65;;;0.77;;
23044;SDS011;11690;51.716;23.066;2023-06-05T12:31:51;1.05;;;0.50;;
23044;SDS011;11690;51.716;23.066;2023-06-05T12:34:37;0.52;;;0.40;;
23044;SDS011;11690;51.716;23.066;2023-06-05T12:37:30;0.80;;;0.50;;
23044;SDS011;11690;51.716;23.066;2023-06-05T12:40:05;0.60;;;0.55;;
23044;SDS011;11690;51.716;23.066;2023-06-05T12:42:39;0.77;;;0.47;;
23044;SDS011;11690;51.716;23.066;2023-06-05T12:45:07;0.57;;;0.40;;
23044;SDS011;11690;51.716;23.066;2023-06-05T12:47:36;0.98;;;0.43;;
23044;SDS011;11690;51.716;23.066;2023-06-05T12:50:04;1.33;;;0.50;;
23044;SDS011;11690;51.716;23.066;2023-06-05T12:52:39;0.88;;;0.70;;
23044;SDS011;11690;51.716;23.066;2023-06-05T12:55:07;0.65;;;0.50;;
23044;SDS011;11690;51.716;23.066;2023-06-05T12:57:35;1.02;;;0.70;;
23044;SDS011;11690;51.716;23.066;2023-06-05T13:00:03;6.18;;;0.60;;
23044;SDS011;11690;51.716;23.066;2023-06-05T13:02:41;3.88;;;0.50;;
23044;SDS011;11690;51.716;23.066;2023-06-05T13:05:13;2.83;;;0.65;;
23044;SDS011;11690;51.716;23.066;2023-06-05T13:07:42;0.88;;;0.60;;
23044;SDS011;11690;51.716;23.066;2023-06-05T13:10:09;0.95;;;0.73;;
23044;SDS011;11690;51.716;23.066;2023-06-05T13:12:38;1.38;;;0.60;;
23044;SDS011;11690;51.716;23.066;2023-06-05T13:15:05;1.70;;;0.77;;
23044;SDS011;11690;51.716;23.066;2023-06-05T13:17:34;0.93;;;0.50;;
23044;SDS011;11690;51.716;23.066;2023-06-05T13:20:02;0.40;;;0.40;;
23044;SDS011;11690;51.716;23.066;2023-06-05T13:22:38;4.07;;;0.60;;
23044;SDS011;11690;51.716;23.066;2023-06-05T13:25:08;0.60;;;0.47;;
23044;SDS011;11690;51.716;23.066;2023-06-05T13:27:36;0.80;;;0.50;;
23044;SDS011;11690;51.716;23.066;2023-06-05T13:30:03;0.73;;;0.50;;
23044;SDS011;11690;51.716;23.066;2023-06-05T13:32:34;1.58;;;0.55;;
23044;SDS011;11690;51.716;23.066;2023-06-05T13:35:02;1.20;;;0.52;;
23044;SDS011;11690;51.716;23.066;2023-06-05T13:37:31;1.48;;;0.70;;
23044;SDS011;11690;51.716;23.066;2023-06-05T13:39:58;0.80;;;0.50;;
23044;SDS011;11690;51.716;23.066;2023-06-05T13:42:25;0.60;;;0.47;;
23044;SDS011;11690;51.716;23.066;2023-06-05T13:44:52;6.55;;;0.80;;
23044;SDS011;11690;51.716;23.066;2023-06-05T13:47:20;0.70;;;0.50;;
23044;SDS011;11690;51.716;23.066;2023-06-05T13:49:47;1.08;;;0.60;;
23044;SDS011;11690;51.716;23.066;2023-06-05T13:52:14;1.15;;;0.55;;
23044;SDS011;11690;51.716;23.066;2023-06-05T13:54:41;0.65;;;0.50;;
23044;SDS011;11690;51.716;23.066;2023-06-05T13:57:10;1.10;;;0.65;;
23044;SDS011;11690;51.716;23.066;2023-06-05T13:59:39;2.25;;;0.40;;
23044;SDS011;11690;51.716;23.066;2023-06-05T14:02:06;2.03;;;0.80;;
23044;SDS011;11690;51.716;23.066;2023-06-05T14:04:33;0.57;;;0.45;;
23044;SDS011;11690;51.716;23.066;2023-06-05T14:07:00;1.35;;;0.80;;
23044;SDS011;11690;51.716;23.066;2023-06-05T14:09:27;0.50;;;0.50;;
23044;SDS011;11690;51.716;23.066;2023-06-05T14:11:55;1.27;;;0.60;;
23044;SDS011;11690;51.716;23.066;2023-06-05T14:14:23;1.08;;;0.60;;
23044;SDS011;11690;51.716;23.066;2023-06-05T14:16:51;1.15;;;0.73;;
23044;SDS011;11690;51.716;23.066;2023-06-05T14:19:18;0.73;;;0.50;;
23044;SDS011;11690;51.716;23.066;2023-06-05T14:21:45;1.63;;;0.60;;
23044;SDS011;11690;51.716;23.066;2023-06-05T14:24:13;1.17;;;0.40;;
23044;SDS011;11690;51.716;23.066;2023-06-05T14:26:41;4.35;;;0.70;;
23044;SDS011;11690;51.716;23.066;2023-06-05T14:29:08;1.02;;;0.47;;
23044;SDS011;11690;51.716;23.066;2023-06-05T14:31:35;1.95;;;0.60;;
23044;SDS011;11690;51.716;23.066;2023-06-05T14:34:04;3.05;;;0.57;;
23044;SDS011;11690;51.716;23.066;2023-06-05T14:36:31;0.73;;;0.65;;
23044;SDS011;11690;51.716;23.066;2023-06-05T14:38:58;0.85;;;0.55;;
23044;SDS011;11690;51.716;23.066;2023-06-05T14:41:27;2.17;;;0.82;;
23044;SDS011;11690;51.716;23.066;2023-06-05T14:43:55;0.98;;;0.63;;
23044;SDS011;11690;51.716;23.066;2023-06-05T14:46:36;0.68;;;0.55;;
23044;SDS011;11690;51.716;23.066;2023-06-05T14:49:03;0.98;;;0.63;;
23044;SDS011;11690;51.716;23.066;2023-06-05T14:51:30;1.48;;;0.80;;
23044;SDS011;11690;51.716;23.066;2023-06-05T14:53:57;1.63;;;0.60;;
23044;SDS011;11690;51.716;23.066;2023-06-05T14:56:25;1.08;;;0.52;;
23044;SDS011;11690;51.716;23.066;2023-06-05T14:58:52;1.77;;;0.65;;
23044;SDS011;11690;51.716;23.066;2023-06-05T15:01:20;5.05;;;0.60;;
23044;SDS011;11690;51.716;23.066;2023-06-05T15:03:48;0.70;;;0.55;;
23044;SDS011;11690;51.716;23.066;2023-06-05T15:06:16;0.65;;;0.50;;
23044;SDS011;11690;51.716;23.066;2023-06-05T15:08:50;0.68;;;0.60;;
23044;SDS011;11690;51.716;23.066;2023-06-05T15:11:18;1.67;;;0.70;;
23044;SDS011;11690;51.716;23.066;2023-06-05T15:13:45;3.35;;;0.60;;
23044;SDS011;11690;51.716;23.066;2023-06-05T15:16:13;2.03;;;0.70;;
23044;SDS011;11690;51.716;23.066;2023-06-05T15:18:43;2.22;;;0.80;;
23044;SDS011;11690;51.716;23.066;2023-06-05T15:21:10;0.55;;;0.50;;